Scat AN24 at Almaty on Feb 7th 2013, runway excursion on landing

Last Update: February 8, 2013 / 18:13:00 GMT/Zulu time

Bookmark this article
Incident Facts

Date of incident
Feb 7, 2013

Classification
Incident

Flight number
DV-766

Aircraft Registration
UP-AN416

Aircraft Type
Antonov An-24

ICAO Type Designator
AN24

A Scat Airlines Antonov AN-24, registration UP-AN416 performing flight DV-766 from Taraz to Almaty (Kazakhstan) with 20 passengers and 4 crew, was on approach to Almaty's runway 05L but touched down with the left main gear on soft ground off the left runway egde while landing in fog at 15:51L (09:51Z) and came to a stop after about 580 meters ground roll and 40 meters left of the left runway edge line. No injuries and no damage occurred.

The aircraft was towed to the apron.

Kazakhstan's Ministry of Transport have opened an investigation into the serious incident.

Metars:
UAAA 071100Z VRB01MPS 5000 BR SCT200 M02/M05 Q1029 R05L/CLRD65 R05R/1///60 NOSIG
UAAA 071030Z 27002MPS 220V010 5000 BR SCT200 M02/M05 Q1029 881///60 NOSIG
UAAA 071000Z VRB01MPS 5000 BR SCT200 M00/M03 Q1029 881///60 NOSIG
UAAA 070930Z 30003MPS 5000 BR SCT200 M02/M04 Q1029 881///60 NOSIG
UAAA 070900Z 30004MPS 5000 BR SCT200 M01/M04 Q1029 881///60 NOSIG
UAAA 070830Z 24004MPS 5000 BR SCT200 M02/M04 Q1029 881///60 NOSIG
UAAA 070800Z 25005MPS 3900 BR BKN200 M02/M03 Q1030 881///60 NOSIG
UAAA 070730Z 31003MPS 2800 BR BKN200 M02/M03 Q1030 881///60 NOSIG
UAAA 070700Z 30002MPS 3600 BR BKN200 M03/M03 Q1030 881///60 NOSIG
UAAA 070630Z 20002MPS 2300 BR BKN200 M03/M03 Q1030 881///60 NOSIG
UAAA 070600Z 21001MPS 2500 BR SCT200 M04/M04 Q1030 881///60 NOSIG
Incident Facts

Date of incident
Feb 7, 2013

Classification
Incident

Flight number
DV-766

Aircraft Registration
UP-AN416

Aircraft Type
Antonov An-24

ICAO Type Designator
AN24

This article is published under license from Avherald.com. © of text by Avherald.com.
Article source

You can read 2 more free articles without a subscription.

Subscribe now and continue reading without any limits!

Are you a subscriber? Login
Subscribe

Read unlimited articles and receive our daily update briefing. Gain better insights into what is happening in commercial aviation safety.

Free newsletter

Want to know more and stay ahead? Get our free weekly newsletter and join 5470 existing subscribers.

By subscribing, you accept our terms and conditions and confirm that you've read our privacy policy.

Send tip

Support AeroInside by sending a small tip amount.

Related articles

Newest articles

Subscribe today

Are you researching aviation incidents? Get access to AeroInside Insights, unlimited read access and receive the daily newsletter.

Pick your plan and subscribe

Partner

Blockaviation logo

A new way to document and demonstrate airworthiness compliance and aircraft value. Find out more.

Virtual Speech logo

ELITE Simulation Solutions is a leading global provider of Flight Simulation Training Devices, IFR training software as well as flight controls and related services. Find out more.

Get updates

Never miss an article from AeroInside. Subscribe to our free weekly newsletter and join 5470 existing subscribers.

By subscribing, you accept our terms and conditions and that you've read our privacy policy.

AeroInside Blog
Popular aircraft
Airbus A320
Boeing 737-800
Boeing 737-800 MAX
Popular airlines
American Airlines
United
Delta
Air Canada
Lufthansa
British Airways